createdAt,value
2017-12-01T00:00:41.422Z,0.00
2017-12-01T00:01:41.438Z,0.00
2017-12-01T00:02:41.454Z,0.00
2017-12-01T00:03:41.469Z,0.00
2017-12-01T00:04:41.492Z,0.00
2017-12-01T00:05:41.500Z,0.00
2017-12-01T00:06:41.517Z,0.00
2017-12-01T00:07:41.533Z,0.00
2017-12-01T00:08:41.549Z,0.00
2017-12-01T00:09:41.564Z,0.00
2017-12-01T00:10:41.580Z,0.00
2017-12-01T00:11:41.596Z,0.00
2017-12-01T00:12:41.612Z,0.00
2017-12-01T00:13:41.626Z,0.00
2017-12-01T00:14:41.641Z,0.00
2017-12-01T00:15:41.658Z,0.00
2017-12-01T00:16:41.675Z,0.00
2017-12-01T00:17:41.694Z,0.00
2017-12-01T00:18:41.704Z,0.00
2017-12-01T00:19:41.721Z,0.00
2017-12-01T00:20:41.737Z,0.00
2017-12-01T00:21:41.752Z,0.00
2017-12-01T00:22:41.767Z,0.00
2017-12-01T00:23:41.785Z,0.00
2017-12-01T00:24:41.801Z,0.00
2017-12-01T00:25:41.814Z,0.00
2017-12-01T00:26:41.831Z,0.00
2017-12-01T00:27:41.847Z,0.00
2017-12-01T00:28:41.862Z,0.00
2017-12-01T00:29:41.881Z,0.00
2017-12-01T00:30:41.893Z,0.00
2017-12-01T00:31:41.908Z,0.00
2017-12-01T00:32:41.925Z,0.00
2017-12-01T00:33:41.939Z,0.00
2017-12-01T00:34:41.954Z,0.00
2017-12-01T00:35:41.978Z,0.00
2017-12-01T00:36:41.986Z,0.00
2017-12-01T00:37:42.002Z,0.00
2017-12-01T00:38:42.017Z,0.00
2017-12-01T00:39:42.034Z,0.00
2017-12-01T00:40:42.049Z,0.00
2017-12-01T00:41:42.066Z,0.00
2017-12-01T00:42:42.080Z,0.00
2017-12-01T00:43:42.094Z,0.00
2017-12-01T00:44:42.111Z,0.00
2017-12-01T00:45:42.125Z,0.00
2017-12-01T00:46:42.142Z,0.00
2017-12-01T00:47:42.158Z,0.00
2017-12-01T00:48:42.172Z,0.00
2017-12-01T00:49:42.187Z,0.00
2017-12-01T00:50:42.204Z,0.00
2017-12-01T00:51:42.218Z,0.00
2017-12-01T00:52:42.235Z,0.00
2017-12-01T00:53:42.250Z,0.00
2017-12-01T00:54:42.265Z,0.00
2017-12-01T00:55:42.281Z,0.00
2017-12-01T00:56:42.296Z,0.00
2017-12-01T00:57:42.310Z,0.00
2017-12-01T00:58:42.328Z,0.00
2017-12-01T00:59:42.342Z,0.00
2017-12-01T01:00:42.357Z,0.00
2017-12-01T01:01:42.372Z,0.00
2017-12-01T01:02:42.388Z,0.00
2017-12-01T01:03:42.405Z,0.00
2017-12-01T01:04:42.420Z,0.00
2017-12-01T01:05:42.434Z,0.00
2017-12-01T01:06:42.551Z,0.00
2017-12-01T01:07:42.466Z,0.00
2017-12-01T01:08:42.482Z,0.00
2017-12-01T01:09:42.497Z,0.00
2017-12-01T01:10:42.512Z,0.00
2017-12-01T01:11:42.537Z,0.00
2017-12-01T01:12:42.550Z,0.00
2017-12-01T01:13:42.557Z,0.00
2017-12-01T01:14:42.573Z,0.00
2017-12-01T01:15:42.590Z,0.00
2017-12-01T01:16:42.606Z,0.00
2017-12-01T01:17:42.621Z,0.00
2017-12-01T01:18:42.636Z,0.00
2017-12-01T01:19:42.653Z,0.00
2017-12-01T01:20:42.666Z,0.00
2017-12-01T01:21:42.682Z,0.00
2017-12-01T01:22:42.697Z,0.00
2017-12-01T01:23:42.714Z,0.00
2017-12-01T01:24:42.730Z,0.00
2017-12-01T01:25:42.743Z,0.00
2017-12-01T01:26:42.760Z,0.00
2017-12-01T01:27:42.776Z,0.00
2017-12-01T01:28:42.790Z,0.00
2017-12-01T01:29:42.807Z,0.00
2017-12-01T01:30:42.822Z,0.00
2017-12-01T01:31:42.840Z,0.00
2017-12-01T01:32:42.855Z,0.00
2017-12-01T01:33:42.869Z,0.00
2017-12-01T01:34:42.883Z,0.00
2017-12-01T01:35:42.901Z,0.00
2017-12-01T01:36:42.914Z,0.00
2017-12-01T01:37:42.931Z,0.00
2017-12-01T01:38:42.946Z,0.00
2017-12-01T01:39:42.961Z,0.00
2017-12-01T01:40:42.978Z,0.00
2017-12-01T01:41:42.991Z,0.00
2017-12-01T01:42:43.008Z,0.00
2017-12-01T01:43:43.024Z,0.00
2017-12-01T01:44:43.038Z,0.00
2017-12-01T01:45:43.055Z,0.00
2017-12-01T01:46:43.070Z,0.00
2017-12-01T01:47:43.086Z,0.00
2017-12-01T01:48:43.101Z,0.00
2017-12-01T01:49:43.116Z,0.00
2017-12-01T01:50:43.432Z,0.00
2017-12-01T01:51:43.147Z,0.00
2017-12-01T01:52:43.164Z,0.00
2017-12-01T01:53:43.177Z,0.00
2017-12-01T01:54:43.195Z,0.00
2017-12-01T01:55:43.210Z,0.00
2017-12-01T01:56:43.224Z,0.00
2017-12-01T01:57:43.239Z,0.00
2017-12-01T01:58:43.254Z,0.00
2017-12-01T01:59:43.271Z,0.00
2017-12-01T02:00:43.286Z,0.00
2017-12-01T02:01:43.305Z,0.00
2017-12-01T02:02:43.316Z,0.00
2017-12-01T02:03:43.332Z,0.00
2017-12-01T02:04:43.348Z,0.00
2017-12-01T02:05:43.362Z,0.00
2017-12-01T02:06:43.379Z,0.00
2017-12-01T02:07:43.393Z,0.00
2017-12-01T02:08:43.409Z,0.00
2017-12-01T02:09:43.424Z,0.00
2017-12-01T02:10:43.441Z,0.00
2017-12-01T02:11:43.455Z,0.00
2017-12-01T02:12:43.472Z,0.00
2017-12-01T02:13:43.485Z,0.00
2017-12-01T02:14:43.503Z,0.00
2017-12-01T02:15:43.566Z,0.00
2017-12-01T02:16:43.533Z,0.00
2017-12-01T02:17:43.548Z,0.00
2017-12-01T02:18:43.563Z,0.00
2017-12-01T02:19:43.580Z,0.00
2017-12-01T02:20:43.595Z,0.00
2017-12-01T02:21:43.609Z,0.00
2017-12-01T02:22:43.625Z,0.00
2017-12-01T02:23:43.642Z,0.00
2017-12-01T02:24:43.657Z,0.00
2017-12-01T02:25:43.671Z,0.00
2017-12-01T02:26:43.687Z,0.00
2017-12-01T02:27:43.703Z,0.00
2017-12-01T02:28:43.719Z,0.00
2017-12-01T02:29:43.732Z,0.00
2017-12-01T02:30:43.750Z,0.00
2017-12-01T02:31:43.765Z,0.00
2017-12-01T02:32:43.781Z,0.00
2017-12-01T02:33:43.794Z,0.00
2017-12-01T02:34:43.810Z,0.00
2017-12-01T02:35:43.826Z,0.00
2017-12-01T02:36:43.841Z,0.00
2017-12-01T02:37:43.856Z,0.00
2017-12-01T02:38:43.874Z,0.00
2017-12-01T02:39:43.894Z,0.00
2017-12-01T02:40:43.908Z,0.00
2017-12-01T02:41:43.920Z,0.00
2017-12-01T02:42:43.939Z,0.00
2017-12-01T02:43:43.951Z,0.00
2017-12-01T02:44:43.964Z,0.00
2017-12-01T02:45:43.985Z,0.00
2017-12-01T02:46:43.994Z,0.00
2017-12-01T02:47:44.015Z,0.00
2017-12-01T02:48:44.026Z,0.00
2017-12-01T02:49:44.040Z,0.00
2017-12-01T02:50:44.056Z,0.00
2017-12-01T02:51:44.072Z,0.00
2017-12-01T02:52:44.086Z,0.00
2017-12-01T02:53:44.105Z,0.00
2017-12-01T02:54:44.117Z,0.00
2017-12-01T02:55:44.133Z,0.00
2017-12-01T02:56:44.148Z,0.00
2017-12-01T02:57:44.165Z,0.00
2017-12-01T02:58:44.178Z,0.00
2017-12-01T02:59:44.193Z,0.00
2017-12-01T03:00:44.209Z,0.00
2017-12-01T03:01:44.223Z,0.00
2017-12-01T03:02:44.238Z,0.00
2017-12-01T03:03:44.255Z,0.00
2017-12-01T03:04:44.271Z,0.00
2017-12-01T03:05:44.285Z,0.00
2017-12-01T03:06:44.300Z,0.00
2017-12-01T03:07:44.316Z,0.00
2017-12-01T03:08:44.331Z,0.00
2017-12-01T03:09:44.346Z,0.00
2017-12-01T03:10:44.361Z,0.00
2017-12-01T03:11:44.376Z,0.00
2017-12-01T03:12:44.393Z,0.00
2017-12-01T03:13:44.407Z,0.00
2017-12-01T03:14:44.473Z,0.00
2017-12-01T03:15:44.438Z,0.00
2017-12-01T03:16:44.454Z,0.00
2017-12-01T03:17:44.469Z,0.00
2017-12-01T03:18:44.484Z,0.00
2017-12-01T03:19:44.499Z,0.00
2017-12-01T03:20:44.516Z,0.00
2017-12-01T03:21:44.531Z,0.00
2017-12-01T03:22:44.546Z,0.00
2017-12-01T03:23:44.561Z,0.00
2017-12-01T03:24:44.577Z,0.00
2017-12-01T03:25:44.593Z,0.00
2017-12-01T03:26:44.608Z,0.00
2017-12-01T03:27:44.624Z,0.00
2017-12-01T03:28:44.640Z,0.00
2017-12-01T03:29:44.656Z,0.00
2017-12-01T03:30:44.672Z,0.00
2017-12-01T03:31:44.686Z,0.00
2017-12-01T03:32:44.705Z,0.00
2017-12-01T03:33:44.716Z,0.00
2017-12-01T03:34:44.731Z,0.00
2017-12-01T03:35:44.748Z,0.00
2017-12-01T03:36:44.762Z,0.00
2017-12-01T03:37:44.779Z,0.00
2017-12-01T03:38:44.794Z,0.00
2017-12-01T03:39:44.809Z,0.00
2017-12-01T03:40:44.825Z,0.00
2017-12-01T03:41:44.840Z,0.00
2017-12-01T03:42:45.055Z,0.00
2017-12-01T03:43:44.871Z,0.00
2017-12-01T03:44:44.886Z,0.00
2017-12-01T03:45:44.901Z,0.00
2017-12-01T03:46:44.917Z,0.00
2017-12-01T03:47:44.932Z,0.00
2017-12-01T03:48:44.948Z,0.00
2017-12-01T03:49:44.964Z,0.00
2017-12-01T03:50:44.978Z,0.00
2017-12-01T03:51:44.993Z,0.00
2017-12-01T03:52:45.009Z,0.00
2017-12-01T03:53:45.028Z,0.00
2017-12-01T03:54:45.041Z,0.00
2017-12-01T03:55:45.055Z,0.00
2017-12-01T03:56:45.071Z,0.00
2017-12-01T03:57:45.086Z,0.00
2017-12-01T03:58:45.102Z,0.00
2017-12-01T03:59:45.117Z,0.00
2017-12-01T04:00:45.132Z,0.00
2017-12-01T04:01:45.147Z,0.00
2017-12-01T04:02:45.164Z,0.00
2017-12-01T04:03:45.178Z,0.00
2017-12-01T04:04:45.194Z,0.00
2017-12-01T04:05:45.209Z,0.00
2017-12-01T04:06:45.227Z,0.00
2017-12-01T04:07:45.240Z,0.00
2017-12-01T04:08:45.255Z,0.00
2017-12-01T04:09:45.270Z,0.00
2017-12-01T04:10:45.286Z,0.00
2017-12-01T04:11:45.302Z,0.00
2017-12-01T04:12:45.316Z,0.00
2017-12-01T04:13:45.333Z,0.00
2017-12-01T04:14:45.347Z,0.00
2017-12-01T04:15:45.371Z,0.00
2017-12-01T04:16:45.379Z,0.00
2017-12-01T04:17:45.393Z,0.00
2017-12-01T04:18:45.411Z,0.00
2017-12-01T04:19:45.425Z,0.00
2017-12-01T04:20:45.440Z,0.00
2017-12-01T04:21:45.555Z,0.00
2017-12-01T04:22:45.472Z,0.00
2017-12-01T04:23:45.486Z,0.00
2017-12-01T04:24:45.508Z,0.00
2017-12-01T04:25:45.516Z,0.00
2017-12-01T04:26:45.532Z,0.00
2017-12-01T04:27:45.548Z,0.00
2017-12-01T04:28:45.579Z,0.00
2017-12-01T04:29:45.580Z,0.00
2017-12-01T04:30:45.594Z,0.00
2017-12-01T04:31:45.616Z,0.00
2017-12-01T04:32:45.628Z,0.00
2017-12-01T04:33:45.641Z,0.00
2017-12-01T04:34:45.656Z,0.00
2017-12-01T04:35:45.672Z,0.00
2017-12-01T04:36:45.688Z,0.00
2017-12-01T04:37:45.704Z,0.00
2017-12-01T04:38:45.724Z,0.00
2017-12-01T04:39:45.736Z,0.00
2017-12-01T04:40:45.750Z,0.00
2017-12-01T04:41:45.766Z,0.00
2017-12-01T04:42:45.782Z,0.00
2017-12-01T04:43:45.797Z,0.00
2017-12-01T04:44:45.813Z,0.00
2017-12-01T04:45:45.826Z,0.00
2017-12-01T04:46:45.865Z,0.00
2017-12-01T04:47:45.859Z,0.00
2017-12-01T04:48:45.874Z,0.00
2017-12-01T04:49:45.890Z,0.00
2017-12-01T04:50:45.905Z,0.00
2017-12-01T04:51:45.921Z,0.00
2017-12-01T04:52:45.937Z,0.00
2017-12-01T04:53:45.951Z,0.00
2017-12-01T04:54:45.967Z,0.00
2017-12-01T04:55:45.984Z,0.00
2017-12-01T04:56:46.000Z,0.00
2017-12-01T04:57:46.013Z,0.00
2017-12-01T04:58:46.030Z,0.00
2017-12-01T04:59:46.046Z,0.00
2017-12-01T05:00:46.061Z,0.00
2017-12-01T05:01:46.077Z,0.00
2017-12-01T05:02:46.092Z,0.00
2017-12-01T05:03:46.108Z,0.00
2017-12-01T05:04:46.125Z,0.00
2017-12-01T05:05:46.139Z,0.00
2017-12-01T05:06:46.154Z,0.00
2017-12-01T05:07:46.221Z,0.00
2017-12-01T05:08:46.184Z,0.00
2017-12-01T05:09:46.200Z,0.00
2017-12-01T05:10:46.216Z,0.00
2017-12-01T05:11:46.232Z,0.00
2017-12-01T05:12:46.247Z,0.00
2017-12-01T05:13:46.261Z,0.00
2017-12-01T05:14:46.276Z,0.00
2017-12-01T05:15:46.293Z,0.00
2017-12-01T05:16:46.310Z,0.00
2017-12-01T05:17:46.324Z,0.00
2017-12-01T05:18:46.339Z,0.00
2017-12-01T05:19:46.354Z,0.00
2017-12-01T05:20:46.371Z,0.00
2017-12-01T05:21:46.635Z,0.00
2017-12-01T05:22:46.402Z,0.00
2017-12-01T05:23:46.416Z,0.00
2017-12-01T05:24:46.433Z,0.00
2017-12-01T05:25:46.451Z,0.00
2017-12-01T05:26:46.463Z,0.00
2017-12-01T05:27:46.478Z,0.00
2017-12-01T05:28:46.494Z,0.00
2017-12-01T05:29:46.509Z,0.00
2017-12-01T05:30:46.529Z,0.00
2017-12-01T05:31:46.541Z,0.00
2017-12-01T05:32:46.555Z,0.00
2017-12-01T05:33:46.571Z,0.00
2017-12-01T05:34:46.586Z,0.00
2017-12-01T05:35:46.602Z,0.00
2017-12-01T05:36:46.617Z,0.00
2017-12-01T05:37:46.632Z,0.00
2017-12-01T05:38:46.649Z,0.00
2017-12-01T05:39:46.664Z,0.00
2017-12-01T05:40:46.680Z,0.00
2017-12-01T05:41:46.695Z,0.00
2017-12-01T05:42:46.710Z,0.00
2017-12-01T05:43:46.725Z,0.00
2017-12-01T05:44:46.741Z,0.00
2017-12-01T05:45:46.756Z,0.00
2017-12-01T05:46:46.771Z,0.00
2017-12-01T05:47:46.847Z,0.00
2017-12-01T05:48:46.804Z,0.00
2017-12-01T05:49:46.818Z,0.00
2017-12-01T05:50:46.834Z,0.00
2017-12-01T05:51:46.849Z,0.00
2017-12-01T05:52:46.866Z,0.00
2017-12-01T05:53:46.881Z,0.00
2017-12-01T05:54:46.901Z,0.00
2017-12-01T05:55:46.912Z,0.00
2017-12-01T05:56:46.927Z,0.00
2017-12-01T05:57:46.942Z,0.00
2017-12-01T05:58:46.957Z,0.00
2017-12-01T05:59:46.973Z,0.00
2017-12-01T06:00:46.989Z,0.00
2017-12-01T06:01:47.003Z,0.00
2017-12-01T06:02:47.019Z,0.00
2017-12-01T06:03:47.040Z,0.00
2017-12-01T06:04:47.051Z,0.00
2017-12-01T06:05:47.065Z,0.00
2017-12-01T06:06:47.081Z,0.00
2017-12-01T06:07:47.096Z,0.00
2017-12-01T06:08:47.112Z,0.00
2017-12-01T06:09:47.129Z,0.00
2017-12-01T06:10:47.142Z,0.00
2017-12-01T06:11:47.162Z,0.00
2017-12-01T06:12:47.172Z,0.00
2017-12-01T06:13:47.187Z,0.00
2017-12-01T06:14:47.204Z,0.00
2017-12-01T06:15:47.220Z,0.00
2017-12-01T06:16:47.234Z,0.00
2017-12-01T06:17:47.249Z,0.00
2017-12-01T06:18:47.264Z,0.00
2017-12-01T06:19:47.280Z,0.00
2017-12-01T06:20:47.295Z,0.00
2017-12-01T06:21:47.310Z,0.00
2017-12-01T06:22:47.327Z,0.00
2017-12-01T06:23:47.341Z,0.00
2017-12-01T06:24:47.358Z,0.00
2017-12-01T06:25:47.371Z,0.00
2017-12-01T06:26:47.388Z,0.00
2017-12-01T06:27:47.405Z,0.00
2017-12-01T06:28:47.418Z,0.00
2017-12-01T06:29:47.434Z,0.00
2017-12-01T06:30:47.551Z,0.00
2017-12-01T06:31:47.464Z,0.00
2017-12-01T06:32:47.480Z,0.00
2017-12-01T06:33:47.495Z,0.00
2017-12-01T06:34:47.512Z,0.00
2017-12-01T06:35:47.527Z,0.00
2017-12-01T06:36:47.541Z,0.00
2017-12-01T06:37:47.556Z,0.00
2017-12-01T06:38:47.572Z,0.00
2017-12-01T06:39:47.586Z,0.00
2017-12-01T06:40:47.603Z,0.00
2017-12-01T06:41:47.619Z,0.00
2017-12-01T06:42:47.633Z,0.00
2017-12-01T06:43:47.649Z,0.00
2017-12-01T06:44:47.665Z,0.00
2017-12-01T06:45:47.678Z,0.00
2017-12-01T06:46:47.695Z,0.00
2017-12-01T06:47:47.717Z,0.00
2017-12-01T06:48:47.725Z,0.00
2017-12-01T06:49:47.739Z,0.00
2017-12-01T06:50:47.756Z,0.00
2017-12-01T06:51:47.803Z,0.00
2017-12-01T06:52:47.788Z,0.00
2017-12-01T06:53:47.801Z,0.00
2017-12-01T06:54:47.817Z,0.00
2017-12-01T06:55:47.833Z,0.00
2017-12-01T06:56:47.852Z,0.00
2017-12-01T06:57:47.864Z,0.00
2017-12-01T06:58:47.879Z,0.00
2017-12-01T06:59:47.895Z,0.00
2017-12-01T07:00:47.910Z,0.00
2017-12-01T07:01:47.925Z,0.00
2017-12-01T07:02:47.939Z,0.00
2017-12-01T07:03:47.955Z,0.00
2017-12-01T07:04:47.971Z,0.00
2017-12-01T07:05:47.986Z,0.00
2017-12-01T07:06:48.002Z,0.00
2017-12-01T07:07:48.018Z,0.00
2017-12-01T07:08:48.033Z,0.00
2017-12-01T07:09:48.048Z,0.00
2017-12-01T07:10:48.062Z,0.00
2017-12-01T07:11:48.079Z,0.00
2017-12-01T07:12:48.094Z,0.00
2017-12-01T07:13:48.109Z,0.00
2017-12-01T07:14:48.124Z,0.00
2017-12-01T07:15:48.147Z,0.00
2017-12-01T07:16:48.155Z,0.00
2017-12-01T07:17:48.171Z,0.00
2017-12-01T07:18:48.186Z,0.00
2017-12-01T07:19:48.201Z,0.00
2017-12-01T07:20:48.217Z,0.00
2017-12-01T07:21:48.235Z,0.00
2017-12-01T07:22:48.247Z,0.00
2017-12-01T07:23:48.264Z,0.00
2017-12-01T07:24:48.279Z,0.00
2017-12-01T07:25:48.294Z,5.63
2017-12-01T07:26:48.310Z,5.63
2017-12-01T07:27:48.325Z,5.63
2017-12-01T07:28:48.341Z,5.63
2017-12-01T07:29:48.356Z,5.63
2017-12-01T07:30:48.372Z,5.63
2017-12-01T07:31:48.386Z,5.63
2017-12-01T07:32:48.401Z,5.63
2017-12-01T07:33:48.416Z,5.63
2017-12-01T07:34:48.436Z,5.63
2017-12-01T07:35:48.447Z,5.63
2017-12-01T07:36:48.463Z,5.63
2017-12-01T07:37:48.478Z,5.63
2017-12-01T07:38:48.494Z,5.63
2017-12-01T07:39:48.510Z,5.63
2017-12-01T07:40:48.524Z,11.25
2017-12-01T07:41:48.540Z,11.25
2017-12-01T07:42:48.756Z,11.25
2017-12-01T07:43:48.571Z,11.25
2017-12-01T07:44:48.587Z,11.25
2017-12-01T07:45:48.601Z,11.25
2017-12-01T07:46:48.616Z,11.25
2017-12-01T07:47:48.634Z,11.25
2017-12-01T07:48:48.648Z,11.25
2017-12-01T07:49:48.663Z,11.25
2017-12-01T07:50:48.678Z,11.25
2017-12-01T07:51:48.693Z,11.25
2017-12-01T07:52:48.709Z,11.25
2017-12-01T07:53:48.725Z,11.25
2017-12-01T07:54:48.740Z,11.25
2017-12-01T07:55:48.755Z,16.88
2017-12-01T07:56:48.772Z,16.88
2017-12-01T07:57:48.787Z,16.88
2017-12-01T07:58:48.802Z,16.88
2017-12-01T07:59:48.818Z,11.25
2017-12-01T08:00:48.833Z,16.88
2017-12-01T08:01:48.850Z,16.88
2017-12-01T08:02:48.864Z,16.88
2017-12-01T08:03:48.880Z,11.25
2017-12-01T08:04:48.896Z,11.25
2017-12-01T08:05:48.912Z,11.25
2017-12-01T08:06:48.926Z,11.25
2017-12-01T08:07:48.941Z,11.25
2017-12-01T08:08:49.059Z,16.88
2017-12-01T08:09:48.971Z,16.88
2017-12-01T08:10:48.988Z,16.88
2017-12-01T08:11:49.005Z,16.88
2017-12-01T08:12:49.020Z,22.50
2017-12-01T08:13:49.036Z,22.50
2017-12-01T08:14:49.050Z,22.50
2017-12-01T08:15:49.064Z,22.50
2017-12-01T08:16:49.082Z,16.88
2017-12-01T08:17:49.095Z,16.88
2017-12-01T08:18:49.110Z,16.88
2017-12-01T08:19:49.127Z,16.88
2017-12-01T08:20:49.143Z,16.88
2017-12-01T08:21:49.157Z,16.88
2017-12-01T08:22:49.178Z,16.88
2017-12-01T08:23:49.190Z,16.88
2017-12-01T08:24:49.206Z,16.88
2017-12-01T08:25:49.223Z,16.88
2017-12-01T08:26:49.239Z,22.50
2017-12-01T08:27:49.251Z,22.50
2017-12-01T08:28:49.267Z,22.50
2017-12-01T08:29:49.284Z,22.50
2017-12-01T08:30:49.298Z,22.50
2017-12-01T08:31:49.314Z,22.50
2017-12-01T08:32:49.330Z,22.50
2017-12-01T08:33:49.346Z,22.50
2017-12-01T08:34:49.361Z,22.50
2017-12-01T08:35:49.376Z,22.50
2017-12-01T08:36:49.393Z,22.50
2017-12-01T08:37:49.406Z,28.13
2017-12-01T08:38:49.422Z,28.13
2017-12-01T08:39:49.444Z,28.13
2017-12-01T08:40:49.457Z,33.75
2017-12-01T08:41:49.470Z,33.75
2017-12-01T08:42:49.485Z,33.75
2017-12-01T08:43:49.502Z,39.38
2017-12-01T08:44:49.517Z,39.38
2017-12-01T08:45:49.531Z,45.00
2017-12-01T08:46:49.549Z,45.00
2017-12-01T08:47:49.564Z,45.00
2017-12-01T08:48:49.578Z,50.63
2017-12-01T08:49:49.593Z,50.63
2017-12-01T08:50:49.611Z,50.63
2017-12-01T08:51:49.625Z,45.00
2017-12-01T08:52:49.646Z,45.00
2017-12-01T08:53:49.656Z,45.00
2017-12-01T08:54:49.672Z,45.00
2017-12-01T08:55:49.689Z,45.00
2017-12-01T08:56:49.704Z,45.00
2017-12-01T08:57:49.718Z,45.00
2017-12-01T08:58:49.735Z,45.00
2017-12-01T08:59:49.751Z,45.00
2017-12-01T09:00:49.766Z,50.63
2017-12-01T09:01:49.782Z,50.63
2017-12-01T09:02:49.799Z,50.63
2017-12-01T09:03:49.814Z,50.63
2017-12-01T09:04:49.880Z,45.00
2017-12-01T09:05:49.844Z,45.00
2017-12-01T09:06:49.862Z,45.00
2017-12-01T09:07:49.878Z,45.00
2017-12-01T09:08:49.900Z,50.63
2017-12-01T09:09:49.908Z,50.63
2017-12-01T09:10:49.923Z,50.63
2017-12-01T09:11:49.940Z,50.63
2017-12-01T09:12:49.956Z,50.63
2017-12-01T09:13:49.970Z,50.63
2017-12-01T09:14:49.986Z,50.63
2017-12-01T09:15:50.004Z,50.63
2017-12-01T09:16:50.018Z,50.63
2017-12-01T09:17:50.032Z,50.63
2017-12-01T09:18:50.049Z,50.63
2017-12-01T09:19:50.065Z,50.63
2017-12-01T09:20:50.119Z,56.25
2017-12-01T09:21:50.095Z,56.25
2017-12-01T09:22:50.112Z,56.25
2017-12-01T09:23:50.127Z,56.25
2017-12-01T09:24:50.143Z,61.88
2017-12-01T09:25:50.159Z,61.88
2017-12-01T09:26:50.173Z,61.88
2017-12-01T09:27:50.193Z,61.88
2017-12-01T09:28:50.205Z,61.88
2017-12-01T09:29:50.225Z,61.88
2017-12-01T09:30:50.240Z,67.50
2017-12-01T09:31:50.253Z,67.50
2017-12-01T09:32:50.269Z,67.50
2017-12-01T09:33:50.283Z,67.50
2017-12-01T09:34:50.299Z,67.50
2017-12-01T09:35:50.315Z,73.13
2017-12-01T09:36:50.332Z,73.13
2017-12-01T09:37:50.347Z,78.75
2017-12-01T09:38:50.363Z,84.38
2017-12-01T09:39:50.379Z,90.00
2017-12-01T09:40:50.396Z,84.38
2017-12-01T09:41:50.410Z,90.00
2017-12-01T09:42:50.426Z,90.00
2017-12-01T09:43:50.442Z,101.25
2017-12-01T09:44:50.458Z,106.88
2017-12-01T09:45:50.475Z,106.88
2017-12-01T09:46:50.491Z,78.75
2017-12-01T09:47:50.506Z,78.75
2017-12-01T09:48:50.524Z,84.38
2017-12-01T09:49:50.611Z,90.00
2017-12-01T09:50:50.556Z,84.38
2017-12-01T09:51:50.570Z,78.75
2017-12-01T09:52:50.588Z,73.13
2017-12-01T09:53:50.605Z,73.13
2017-12-01T09:54:50.620Z,73.13
2017-12-01T09:55:50.637Z,73.13
2017-12-01T09:56:50.654Z,73.13
2017-12-01T09:57:50.669Z,73.13
2017-12-01T09:58:50.683Z,73.13
2017-12-01T09:59:50.702Z,73.13
2017-12-01T10:00:50.718Z,73.13
2017-12-01T10:01:50.741Z,73.13
2017-12-01T10:02:50.749Z,78.75
2017-12-01T10:03:50.765Z,78.75
2017-12-01T10:04:50.782Z,90.00
2017-12-01T10:05:50.801Z,95.63
2017-12-01T10:06:50.814Z,106.88
2017-12-01T10:07:50.834Z,112.50
2017-12-01T10:08:50.846Z,112.50
2017-12-01T10:09:50.862Z,106.88
2017-12-01T10:10:50.878Z,112.50
2017-12-01T10:11:50.895Z,112.50
2017-12-01T10:12:50.912Z,112.50
2017-12-01T10:13:50.927Z,112.50
2017-12-01T10:14:50.945Z,112.50
2017-12-01T10:15:50.961Z,118.13
2017-12-01T10:16:50.976Z,118.13
2017-12-01T10:17:50.992Z,118.13
2017-12-01T10:18:51.009Z,112.50
2017-12-01T10:19:51.026Z,106.88
2017-12-01T10:20:51.042Z,118.13
2017-12-01T10:21:51.059Z,118.13
2017-12-01T10:22:51.076Z,118.13
2017-12-01T10:23:51.092Z,118.13
2017-12-01T10:24:51.116Z,101.25
2017-12-01T10:25:51.125Z,112.50
2017-12-01T10:26:51.143Z,95.63
2017-12-01T10:27:51.159Z,95.63
2017-12-01T10:28:51.177Z,101.25
2017-12-01T10:29:51.196Z,101.25
2017-12-01T10:30:51.213Z,118.13
2017-12-01T10:31:51.233Z,95.63
2017-12-01T10:32:51.243Z,106.88
2017-12-01T10:33:51.262Z,118.13
2017-12-01T10:34:51.278Z,118.13
2017-12-01T10:35:51.295Z,118.13
2017-12-01T10:36:51.312Z,106.88
2017-12-01T10:37:51.328Z,101.25
2017-12-01T10:38:51.345Z,106.88
2017-12-01T10:39:51.360Z,118.13
2017-12-01T10:40:51.384Z,106.88
2017-12-01T10:41:51.395Z,101.25
2017-12-01T10:42:51.411Z,101.25
2017-12-01T10:43:51.428Z,101.25
2017-12-01T10:44:51.445Z,106.88
2017-12-01T10:45:51.461Z,101.25
2017-12-01T10:46:51.479Z,106.88
2017-12-01T10:47:51.495Z,129.38
2017-12-01T10:48:51.512Z,118.13
2017-12-01T10:49:51.529Z,129.38
2017-12-01T10:50:51.545Z,129.38
2017-12-01T10:51:51.564Z,146.25
2017-12-01T10:52:51.622Z,174.38
2017-12-01T10:53:51.602Z,174.38
2017-12-01T10:54:51.613Z,135.00
2017-12-01T10:55:51.631Z,101.25
2017-12-01T10:56:51.646Z,112.50
2017-12-01T10:57:51.663Z,112.50
2017-12-01T10:58:51.682Z,112.50
2017-12-01T10:59:51.697Z,118.13
2017-12-01T11:00:51.750Z,106.88
2017-12-01T11:01:51.731Z,112.50
2017-12-01T11:02:51.748Z,123.75
2017-12-01T11:03:51.766Z,123.75
2017-12-01T11:04:51.783Z,118.13
2017-12-01T11:05:51.798Z,123.75
2017-12-01T11:06:51.815Z,118.13
2017-12-01T11:07:51.834Z,112.50
2017-12-01T11:08:51.850Z,112.50
2017-12-01T11:09:51.866Z,112.50
2017-12-01T11:10:51.884Z,118.13
2017-12-01T11:11:51.899Z,129.38
2017-12-01T11:12:51.917Z,118.13
2017-12-01T11:13:51.932Z,129.38
2017-12-01T11:14:51.950Z,129.38
2017-12-01T11:15:51.967Z,129.38
2017-12-01T11:16:51.995Z,123.75
2017-12-01T11:17:51.999Z,129.38
2017-12-01T11:18:52.016Z,140.63
2017-12-01T11:19:52.033Z,140.63
2017-12-01T11:20:52.051Z,140.63
2017-12-01T11:21:52.065Z,146.25
2017-12-01T11:22:52.083Z,146.25
2017-12-01T11:23:52.102Z,151.88
2017-12-01T11:24:52.116Z,146.25
2017-12-01T11:25:52.133Z,140.63
2017-12-01T11:26:52.151Z,135.00
2017-12-01T11:27:52.168Z,129.38
2017-12-01T11:28:52.186Z,123.75
2017-12-01T11:29:52.201Z,135.00
2017-12-01T11:30:52.228Z,135.00
2017-12-01T11:31:52.286Z,129.38
2017-12-01T11:32:52.252Z,129.38
2017-12-01T11:33:52.270Z,129.38
2017-12-01T11:34:52.286Z,129.38
2017-12-01T11:35:52.306Z,135.00
2017-12-01T11:36:52.321Z,129.38
2017-12-01T11:37:52.338Z,129.38
2017-12-01T11:38:52.355Z,129.38
2017-12-01T11:39:52.373Z,123.75
2017-12-01T11:40:52.390Z,123.75
2017-12-01T11:41:52.406Z,112.50
2017-12-01T11:42:52.422Z,106.88
2017-12-01T11:43:52.441Z,101.25
2017-12-01T11:44:52.457Z,106.88
2017-12-01T11:45:52.473Z,101.25
2017-12-01T11:46:52.492Z,101.25
2017-12-01T11:47:52.508Z,101.25
2017-12-01T11:48:52.525Z,101.25
2017-12-01T11:49:52.541Z,101.25
2017-12-01T11:50:52.558Z,101.25
2017-12-01T11:51:52.575Z,101.25
2017-12-01T11:52:52.598Z,101.25
2017-12-01T11:53:52.610Z,101.25
2017-12-01T11:54:52.626Z,101.25
2017-12-01T11:55:52.692Z,101.25
2017-12-01T11:56:52.662Z,101.25
2017-12-01T11:57:52.679Z,106.88
2017-12-01T11:58:52.696Z,106.88
2017-12-01T11:59:52.720Z,106.88
2017-12-01T12:00:52.730Z,112.50
2017-12-01T12:01:52.746Z,112.50
2017-12-01T12:02:52.763Z,112.50
2017-12-01T12:03:52.780Z,112.50
2017-12-01T12:04:52.797Z,112.50
2017-12-01T12:05:52.813Z,112.50
2017-12-01T12:06:52.830Z,112.50
2017-12-01T12:07:52.848Z,112.50
2017-12-01T12:08:52.864Z,118.13
2017-12-01T12:09:52.880Z,112.50
2017-12-01T12:10:52.897Z,112.50
2017-12-01T12:11:52.915Z,118.13
2017-12-01T12:12:52.932Z,112.50
2017-12-01T12:13:52.948Z,112.50
2017-12-01T12:14:52.965Z,106.88
2017-12-01T12:15:52.982Z,112.50
2017-12-01T12:16:53.000Z,112.50
2017-12-01T12:17:53.015Z,106.88
2017-12-01T12:18:53.033Z,95.63
2017-12-01T12:19:53.049Z,90.00
2017-12-01T12:20:53.067Z,84.38
2017-12-01T12:21:53.084Z,78.75
2017-12-01T12:22:53.101Z,78.75
2017-12-01T12:23:53.119Z,73.13
2017-12-01T12:24:53.135Z,73.13
2017-12-01T12:25:53.153Z,61.88
2017-12-01T12:26:53.170Z,61.88
2017-12-01T12:27:53.186Z,61.88
2017-12-01T12:28:53.203Z,61.88
2017-12-01T12:29:53.221Z,61.88
2017-12-01T12:30:53.237Z,67.50
2017-12-01T12:31:53.254Z,73.13
2017-12-01T12:32:53.274Z,73.13
2017-12-01T12:33:53.287Z,73.13
2017-12-01T12:34:53.306Z,73.13
2017-12-01T12:35:53.322Z,73.13
2017-12-01T12:36:53.340Z,67.50
2017-12-01T12:37:53.355Z,50.63
2017-12-01T12:38:53.372Z,50.63
2017-12-01T12:39:53.390Z,50.63
2017-12-01T12:40:53.408Z,50.63
2017-12-01T12:41:53.424Z,50.63
2017-12-01T12:42:53.439Z,50.63
2017-12-01T12:43:53.457Z,45.00
2017-12-01T12:44:53.476Z,45.00
2017-12-01T12:45:53.490Z,45.00
2017-12-01T12:46:53.507Z,45.00
2017-12-01T12:47:53.526Z,45.00
2017-12-01T12:48:53.542Z,45.00
2017-12-01T12:49:53.559Z,45.00
2017-12-01T12:50:53.576Z,50.63
2017-12-01T12:51:53.592Z,50.63
2017-12-01T12:52:53.609Z,50.63
2017-12-01T12:53:53.626Z,50.63
2017-12-01T12:54:53.642Z,50.63
2017-12-01T12:55:53.659Z,45.00
2017-12-01T12:56:53.676Z,45.00
2017-12-01T12:57:53.692Z,45.00
2017-12-01T12:58:53.809Z,45.00
2017-12-01T12:59:53.725Z,45.00
2017-12-01T13:00:53.746Z,45.00
2017-12-01T13:01:53.764Z,45.00
2017-12-01T13:02:53.876Z,45.00
2017-12-01T13:03:53.794Z,45.00